Time;durP1;ratioP1;P1;durP2;ratioP2;P2;SDS_P1;SDS_P2;PMS_P1;PMS_P2;Temp;Humidity;BMP_temperature;BMP_pressure;BME280_temperature;BME280_humidity;BME280_pressure;Samples;Min_cycle;Max_cycle;Signal;HPM_P1;HPM_P2
2021/11/27 00:00:20;;;;;;;105.90;37.33;;;;;;;3.77;100.00;98612.89;1736921;82;21059;-73
2021/11/27 00:02:47;;;;;;;97.65;37.63;;;;;;;3.72;100.00;98608.30;1738017;81;21131;-72
2021/11/27 00:05:14;;;;;;;67.40;31.15;;;;;;;3.65;100.00;98604.20;1737419;82;21149;-72
2021/11/27 00:07:43;;;;;;;76.55;33.40;;;;;;;3.60;100.00;98608.72;1738191;82;21060;-71
2021/11/27 00:10:13;;;;;;;66.22;31.93;;;;;;;3.54;100.00;98592.83;1717720;83;21101;-72
2021/11/27 00:12:40;;;;;;;58.73;29.07;;;;;;;3.49;100.00;98590.38;1717852;83;21238;-72
2021/11/27 00:15:08;;;;;;;57.93;27.55;;;;;;;3.44;100.00;98581.88;1717815;83;21817;-71
2021/11/27 00:17:37;;;;;;;54.05;28.85;;;;;;;3.39;100.00;98572.08;1717803;83;21092;-71
2021/11/27 00:20:08;;;;;;;52.15;25.30;;;;;;;3.38;100.00;98572.12;1718128;83;21046;-71
2021/11/27 00:22:35;;;;;;;57.30;29.37;;;;;;;3.35;100.00;98569.17;1717803;83;21072;-70
2021/11/27 00:25:03;;;;;;;54.55;26.50;;;;;;;3.34;100.00;98566.18;1719603;82;21852;-71
2021/11/27 00:27:32;;;;;;;67.15;30.88;;;;;;;3.29;100.00;98564.16;1680839;85;21285;-71
2021/11/27 00:30:00;;;;;;;54.13;25.77;;;;;;;3.26;100.00;98553.86;1717840;83;21586;-72
2021/11/27 00:32:28;;;;;;;61.15;29.12;;;;;;;3.20;100.00;98542.34;1680846;85;21165;-72
2021/11/27 00:34:55;;;;;;;61.23;31.00;;;;;;;3.24;100.00;98545.25;1717938;83;21014;-72
2021/11/27 00:37:22;;;;;;;61.73;31.73;;;;;;;3.24;100.00;98542.65;1717835;83;21064;-71
2021/11/27 00:39:49;;;;;;;63.78;32.40;;;;;;;3.21;100.00;98530.59;1718109;83;21152;-71
2021/11/27 00:42:15;;;;;;;63.50;30.10;;;;;;;3.21;100.00;98520.64;1680748;85;21108;-72
2021/11/27 00:44:42;;;;;;;61.23;31.40;;;;;;;3.20;100.00;98529.33;1717879;82;21053;-71
2021/11/27 00:47:10;;;;;;;66.62;33.20;;;;;;;3.21;100.00;98514.14;1717280;83;21073;-70
2021/11/27 00:49:36;;;;;;;61.70;31.63;;;;;;;3.21;100.00;98497.23;1717513;83;21093;-72
2021/11/27 00:52:05;;;;;;;57.35;29.02;;;;;;;3.20;100.00;98491.19;1717593;83;21975;-77
2021/11/27 00:54:32;;;;;;;56.95;29.37;;;;;;;3.15;100.00;98496.97;1681048;85;21594;-75
2021/11/27 00:56:59;;;;;;;69.58;34.27;;;;;;;3.14;100.00;98480.52;1722227;82;21027;-78
2021/11/27 00:59:27;;;;;;;66.72;34.03;;;;;;;3.14;100.00;98472.71;1707942;84;21078;-79
2021/11/27 01:01:54;;;;;;;72.12;35.00;;;;;;;3.13;100.00;98461.92;1747352;82;21101;-76
2021/11/27 01:04:23;;;;;;;64.50;32.88;;;;;;;3.14;100.00;98463.61;1747630;82;21029;-76
2021/11/27 01:06:51;;;;;;;69.45;34.03;;;;;;;3.17;100.00;98452.70;1747351;81;22179;-81
2021/11/27 01:09:20;;;;;;;69.72;32.73;;;;;;;3.14;100.00;98444.10;1718210;82;21611;-83
2021/11/27 01:11:53;;;;;;;72.97;34.73;;;;;;;3.17;100.00;98442.30;1717638;83;21120;-77
2021/11/27 01:14:24;;;;;;;65.92;32.23;;;;;;;3.16;100.00;98427.16;1718012;83;21048;-78
2021/11/27 01:16:59;;;;;;;60.92;29.50;;;;;;;3.19;100.00;98427.50;1747527;82;21054;-78
2021/11/27 01:19:27;;;;;;;60.90;30.48;;;;;;;3.20;100.00;98424.84;1747635;82;21041;-76
2021/11/27 01:21:58;;;;;;;62.35;31.23;;;;;;;3.21;100.00;98413.53;1747628;82;21073;-79
2021/11/27 01:24:25;;;;;;;64.92;29.10;;;;;;;3.20;100.00;98408.37;1747420;82;21112;-76
2021/11/27 01:26:54;;;;;;;72.03;31.33;;;;;;;3.23;100.00;98391.38;1747652;82;21104;-79
2021/11/27 01:29:22;;;;;;;57.15;29.10;;;;;;;3.23;100.00;98384.87;1747699;82;21144;-80
2021/11/27 01:31:50;;;;;;;55.75;28.83;;;;;;;3.27;100.00;98389.07;1747547;82;21040;-80
2021/11/27 01:34:18;;;;;;;58.45;27.80;;;;;;;3.30;100.00;98383.75;1747858;82;21006;-78
2021/11/27 01:36:44;;;;;;;53.50;27.45;;;;;;;3.31;100.00;98384.13;1747451;82;21540;-79
2021/11/27 01:39:11;;;;;;;59.35;28.27;;;;;;;3.34;100.00;98365.83;1732320;82;21116;-78
2021/11/27 01:41:38;;;;;;;55.58;28.73;;;;;;;3.34;100.00;98365.37;1717558;83;21093;-76
2021/11/27 01:44:07;;;;;;;53.90;25.85;;;;;;;3.35;100.00;98361.00;1717867;83;21046;-76
2021/11/27 01:46:35;;;;;;;58.68;28.70;;;;;;;3.36;100.00;98354.92;1718160;83;21033;-75
2021/11/27 01:49:03;;;;;;;54.23;27.90;;;;;;;3.35;100.00;98354.50;1722547;80;20943;-76
2021/11/27 01:51:30;;;;;;;55.30;25.50;;;;;;;3.37;100.00;98359.20;1720177;81;21069;-74
2021/11/27 01:54:03;;;;;;;56.65;28.12;;;;;;;3.34;100.00;98343.71;1719313;83;22077;-76
2021/11/27 01:56:36;;;;;;;55.20;26.65;;;;;;;3.36;100.00;98328.90;1717752;83;21047;-77
2021/11/27 01:59:05;;;;;;;50.88;26.87;;;;;;;3.37;100.00;98318.88;1718194;83;21044;-77
2021/11/27 02:01:33;;;;;;;54.15;26.35;;;;;;;3.39;100.00;98313.16;1717878;83;21077;-77
2021/11/27 02:04:01;;;;;;;53.08;25.08;;;;;;;3.39;100.00;98314.92;1717947;83;21608;-78
2021/11/27 02:06:30;;;;;;;50.17;25.02;;;;;;;3.41;100.00;98325.66;1712062;83;21150;-77
2021/11/27 02:08:57;;;;;;;56.65;26.00;;;;;;;3.43;100.00;98293.06;1728729;82;21035;-75
2021/11/27 02:11:29;;;;;;;53.42;25.00;;;;;;;3.42;100.00;98305.23;1733625;82;21049;-80
2021/11/27 02:13:57;;;;;;;52.25;24.77;;;;;;;3.44;100.00;98305.19;1733618;82;21070;-80
2021/11/27 02:16:25;;;;;;;46.88;20.68;;;;;;;3.43;100.00;98310.84;1733927;82;21112;-80
2021/11/27 02:21:59;;;;;;;56.00;28.17;;;;;;;3.45;100.00;98293.86;1795243;79;25239;-79
2021/11/27 02:24:28;;;;;;;51.33;25.97;;;;;;;3.40;100.00;98288.82;1773597;80;21091;-80
2021/11/27 02:26:56;;;;;;;49.25;25.40;;;;;;;3.41;100.00;98290.53;1790204;80;21501;-79
2021/11/27 02:29:26;;;;;;;48.83;23.75;;;;;;;3.40;100.00;98268.00;1790002;80;20897;-80
2021/11/27 02:31:56;;;;;;;43.33;19.15;;;;;;;3.42;100.00;98273.16;1790148;80;21089;-81
2021/11/27 02:34:25;;;;;;;52.55;26.12;;;;;;;3.43;100.00;98282.22;1790280;80;21606;-81
2021/11/27 02:36:59;;;;;;;49.55;23.70;;;;;;;3.45;100.00;98277.81;1755448;81;21579;-79
2021/11/27 02:39:26;;;;;;;53.15;27.20;;;;;;;3.46;100.00;98272.98;1728574;83;21095;-80
2021/11/27 02:41:54;;;;;;;51.73;28.05;;;;;;;3.48;100.00;98255.56;1737277;82;20977;-78
2021/11/27 02:44:27;;;;;;;49.33;26.75;;;;;;;3.52;100.00;98244.14;1737127;82;21555;-79
2021/11/27 02:46:54;;;;;;;50.73;26.42;;;;;;;3.53;100.00;98232.80;1737013;82;21591;-80
2021/11/27 02:49:22;;;;;;;54.53;26.68;;;;;;;3.56;100.00;98237.04;1736895;82;21618;-80
2021/11/27 02:51:48;;;;;;;47.65;25.37;;;;;;;3.62;100.00;98230.77;1737032;82;21564;-79
2021/11/27 02:54:16;;;;;;;50.50;25.90;;;;;;;3.66;100.00;98238.39;1736974;82;21120;-78
2021/11/27 02:56:46;;;;;;;48.60;26.42;;;;;;;3.67;100.00;98228.82;1736845;82;21062;-79
2021/11/27 02:59:16;;;;;;;47.88;24.90;;;;;;;3.69;100.00;98223.11;1736955;82;21056;-78
2021/11/27 03:01:46;;;;;;;45.45;23.38;;;;;;;3.73;100.00;98224.69;1718262;82;21629;-79
2021/11/27 03:04:13;;;;;;;39.90;20.77;;;;;;;3.76;100.00;98215.44;1737117;82;21127;-81
2021/11/27 03:06:42;;;;;;;45.88;23.52;;;;;;;3.79;100.00;98215.31;1737230;82;21591;-81
2021/11/27 03:09:08;;;;;;;40.28;22.10;;;;;;;3.84;100.00;98208.61;1737225;82;21108;-79
2021/11/27 03:11:35;;;;;;;41.13;22.67;;;;;;;3.86;100.00;98208.94;1736906;82;21558;-81
2021/11/27 03:14:03;;;;;;;34.67;20.75;;;;;;;3.90;100.00;98201.41;1736986;82;21092;-82
2021/11/27 03:16:33;;;;;;;39.18;22.27;;;;;;;3.95;100.00;98193.40;1736774;82;21049;-77
2021/11/27 03:19:01;;;;;;;37.15;20.62;;;;;;;3.99;100.00;98198.42;1737083;82;21069;-76
2021/11/27 03:21:29;;;;;;;33.78;19.60;;;;;;;3.99;100.00;98195.81;1745747;82;21116;-77
2021/11/27 03:23:56;;;;;;;38.08;21.77;;;;;;;4.05;100.00;98194.73;1750486;82;21642;-76
2021/11/27 03:26:24;;;;;;;38.20;22.60;;;;;;;4.11;100.00;98184.50;1750261;82;21635;-75
2021/11/27 03:28:50;;;;;;;37.73;19.12;;;;;;;4.14;100.00;98185.23;1750646;82;21209;-80
2021/11/27 03:31:17;;;;;;;39.67;21.90;;;;;;;4.16;100.00;98177.33;1750590;82;21109;-81
2021/11/27 03:33:44;;;;;;;35.75;21.33;;;;;;;4.21;100.00;98178.01;1749956;82;21375;-82
2021/11/27 03:36:14;;;;;;;40.65;21.52;;;;;;;4.25;100.00;98169.13;1750003;82;21101;-80
2021/11/27 03:38:41;;;;;;;37.70;20.62;;;;;;;4.29;100.00;98175.91;1700790;82;21050;-83
2021/11/27 03:41:08;;;;;;;33.92;19.35;;;;;;;4.31;100.00;98168.88;1749918;82;21109;-82
2021/11/27 03:43:38;;;;;;;36.85;19.45;;;;;;;4.33;100.00;98170.95;1749885;82;21037;-82
2021/11/27 03:46:04;;;;;;;36.80;20.82;;;;;;;4.36;100.00;98178.63;1701276;82;21022;-83
2021/11/27 03:48:36;;;;;;;31.68;19.17;;;;;;;4.38;100.00;98182.02;1750100;82;21054;-81
2021/11/27 03:51:18;;;;;;;36.38;18.85;;;;;;;4.37;100.00;98163.41;1751801;82;21560;-80
2021/11/27 03:53:45;;;;;;;34.38;19.07;;;;;;;4.39;100.00;98165.49;1753855;82;21096;-83
2021/11/27 03:56:29;;;;;;;29.07;16.45;;;;;;;4.41;100.00;98164.94;1751140;82;21660;-84
2021/11/27 03:59:04;;;;;;;36.53;19.55;;;;;;;4.42;100.00;98156.69;1749584;82;21010;-83
2021/11/27 04:01:30;;;;;;;30.43;18.45;;;;;;;4.46;100.00;98161.30;1750155;82;21057;-82
2021/11/27 04:03:58;;;;;;;30.35;17.30;;;;;;;4.48;100.00;98145.98;1751010;82;21113;-82
2021/11/27 04:06:25;;;;;;;31.50;18.12;;;;;;;4.50;100.00;98150.67;1755212;77;21068;-81
2021/11/27 04:08:54;;;;;;;32.30;18.30;;;;;;;4.52;100.00;98137.58;1755617;77;20948;-81
2021/11/27 04:11:22;;;;;;;27.02;16.10;;;;;;;4.54;100.00;98138.36;1727424;82;21778;-81
2021/11/27 04:35:21;;;;;;;26.12;14.68;;;;;;;4.58;100.00;98108.17;1703610;81;20958;-81
2021/11/27 04:37:49;;;;;;;24.45;13.65;;;;;;;4.62;100.00;98124.08;1669989;79;21093;-81
2021/11/27 04:40:16;;;;;;;25.27;13.95;;;;;;;4.65;100.00;98134.82;1672017;84;21946;-79
2021/11/27 04:42:45;;;;;;;27.00;14.65;;;;;;;4.67;100.00;98139.52;1670925;85;21579;-81
2021/11/27 04:45:12;;;;;;;25.75;14.80;;;;;;;4.68;100.00;98129.45;1676014;84;21621;-80
2021/11/27 04:47:41;;;;;;;25.72;13.35;;;;;;;4.71;100.00;98131.91;1689947;84;21073;-80
2021/11/27 04:50:09;;;;;;;28.20;14.70;;;;;;;4.74;100.00;98127.02;1685871;85;21117;-80
2021/11/27 04:52:37;;;;;;;27.37;14.68;;;;;;;4.75;100.00;98129.56;1671754;85;21108;-78
2021/11/27 04:55:05;;;;;;;23.83;13.58;;;;;;;4.76;100.00;98140.83;1666994;86;21098;-76
2021/11/27 04:57:33;;;;;;;25.25;14.85;;;;;;;4.76;100.00;98135.19;1666756;86;21129;-75
2021/11/27 05:00:00;;;;;;;23.77;14.43;;;;;;;4.79;100.00;98131.13;1666962;86;21620;-78
2021/11/27 05:02:29;;;;;;;30.65;15.75;;;;;;;4.82;100.00;98129.67;1665882;86;21546;-78
2021/11/27 05:04:56;;;;;;;26.10;15.60;;;;;;;4.86;100.00;98145.20;1665457;86;22064;-79
2021/11/27 05:07:23;;;;;;;25.32;13.85;;;;;;;4.89;100.00;98147.66;1665437;86;21130;-76
2021/11/27 05:09:50;;;;;;;28.27;15.18;;;;;;;4.92;100.00;98130.55;1665833;86;21074;-78
2021/11/27 05:12:18;;;;;;;21.10;12.10;;;;;;;4.95;100.00;98136.95;1665277;86;21091;-78
2021/11/27 05:14:45;;;;;;;22.62;12.68;;;;;;;5.01;100.00;98148.39;1665848;86;21064;-76
2021/11/27 05:17:11;;;;;;;18.48;10.45;;;;;;;5.06;100.00;98133.36;1639197;86;21620;-77
2021/11/27 05:19:39;;;;;;;16.07;10.43;;;;;;;5.11;100.00;98136.63;1665413;86;21118;-78
2021/11/27 05:22:14;;;;;;;12.82;7.47;;;;;;;5.18;100.00;98142.41;1663183;84;21854;-79
2021/11/27 05:24:44;;;;;;;11.88;6.87;;;;;;;5.28;100.00;98144.13;1665394;86;21050;-79
2021/11/27 05:27:24;;;;;;;15.60;8.20;;;;;;;5.35;100.00;98135.08;1665846;85;21085;-83
2021/11/27 05:29:56;;;;;;;12.70;7.33;;;;;;;5.42;100.00;98146.45;1664248;85;22086;-81
2021/11/27 05:32:39;;;;;;;10.80;7.20;;;;;;;5.50;100.00;98142.19;1668744;85;21584;-86
2021/11/27 05:34:54;;;;;;;9.98;6.60;;;;;;;5.55;100.00;98133.66;1666010;85;21107;-89
2021/11/27 05:37:21;;;;;;;9.75;6.55;;;;;;;5.63;100.00;98126.75;1665783;85;21130;-86
2021/11/27 05:39:48;;;;;;;10.63;6.55;;;;;;;5.68;100.00;98124.31;1660053;86;22105;-85
2021/11/27 05:42:15;;;;;;;11.05;6.60;;;;;;;5.74;100.00;98126.23;1624271;88;21200;-86
2021/11/27 05:44:46;;;;;;;10.35;6.15;;;;;;;5.79;100.00;98125.07;1593572;90;21596;-74
2021/11/27 05:47:15;;;;;;;10.70;6.50;;;;;;;5.84;100.00;98135.30;1593768;90;21090;-75
2021/11/27 05:49:43;;;;;;;9.83;5.95;;;;;;;5.89;100.00;98137.23;1594120;90;21119;-73
2021/11/27 05:52:14;;;;;;;8.40;5.70;;;;;;;5.95;100.00;98139.56;1619930;86;21676;-75
2021/11/27 05:54:42;;;;;;;15.15;6.40;;;;;;;6.02;100.00;98148.78;1633834;87;21243;-74
2021/11/27 05:57:09;;;;;;;11.10;7.55;;;;;;;6.07;100.00;98149.41;1626380;86;21078;-75
2021/11/27 05:59:36;;;;;;;12.68;6.75;;;;;;;6.14;100.00;98141.25;1602550;88;21110;-73
2021/11/27 06:02:03;;;;;;;10.13;7.40;;;;;;;6.18;100.00;98137.56;1597660;88;21075;-75
2021/11/27 06:04:29;;;;;;;14.10;9.05;;;;;;;6.19;100.00;98128.78;1596109;89;21113;-76
2021/11/27 06:06:57;;;;;;;13.58;8.30;;;;;;;6.26;100.00;98140.64;1597195;87;21123;-75
2021/11/27 06:09:25;;;;;;;15.03;8.33;;;;;;;6.32;100.00;98149.45;1606191;89;21088;-75
2021/11/27 06:11:52;;;;;;;13.90;9.83;;;;;;;6.37;100.00;98157.91;1606192;89;21123;-74
2021/11/27 06:14:21;;;;;;;13.62;9.03;;;;;;;6.40;100.00;98154.31;1606373;88;21105;-75
2021/11/27 06:16:48;;;;;;;15.60;9.60;;;;;;;6.43;100.00;98138.45;1605051;89;22241;-75
2021/11/27 06:19:15;;;;;;;12.80;9.10;;;;;;;6.47;100.00;98148.67;1604959;89;21202;-75
2021/11/27 06:21:43;;;;;;;14.25;9.95;;;;;;;6.50;100.00;98157.66;1603697;87;21158;-76
2021/11/27 06:24:10;;;;;;;12.00;9.90;;;;;;;6.54;100.00;98152.29;1604856;88;21109;-76
2021/11/27 06:26:37;;;;;;;13.03;9.78;;;;;;;6.58;100.00;98158.59;1601017;87;21570;-76
2021/11/27 06:29:03;;;;;;;14.75;10.30;;;;;;;6.62;100.00;98152.72;1606253;89;21120;-72
2021/11/27 06:31:30;;;;;;;13.90;10.50;;;;;;;6.66;100.00;98156.86;1605900;88;21184;-72
2021/11/27 06:33:57;;;;;;;15.63;11.22;;;;;;;6.69;100.00;98164.54;1605417;89;21042;-75
2021/11/27 06:36:26;;;;;;;18.17;10.08;;;;;;;6.74;100.00;98157.32;1604825;89;21122;-74
2021/11/27 06:38:54;;;;;;;16.35;10.15;;;;;;;6.77;100.00;98156.31;1606507;89;21101;-74
2021/11/27 06:41:21;;;;;;;17.35;11.30;;;;;;;6.80;100.00;98157.45;1657546;86;21106;-73
2021/11/27 06:43:50;;;;;;;16.73;11.70;;;;;;;6.82;100.00;98160.36;1657058;85;21161;-74
2021/11/27 06:46:19;;;;;;;18.25;10.30;;;;;;;6.84;100.00;98153.28;1656877;86;21075;-75
2021/11/27 06:48:46;;;;;;;16.37;10.13;;;;;;;6.86;100.00;98167.13;1659084;86;21153;-74
2021/11/27 06:51:14;;;;;;;17.35;10.50;;;;;;;6.87;100.00;98163.56;1658755;86;21086;-75
2021/11/27 06:53:41;;;;;;;18.60;10.75;;;;;;;6.90;100.00;98163.42;1658175;85;21107;-74
2021/11/27 06:56:08;;;;;;;16.42;9.78;;;;;;;6.90;100.00;98162.12;1658788;86;21451;-75
2021/11/27 06:58:35;;;;;;;17.95;11.78;;;;;;;6.86;100.00;98145.36;1658701;86;21585;-77
2021/11/27 07:01:07;;;;;;;20.32;11.97;;;;;;;6.94;100.00;98159.69;1651264;86;21664;-77
2021/11/27 07:03:51;;;;;;;15.72;11.28;;;;;;;6.98;100.00;98171.33;1652384;85;21651;-75
2021/11/27 07:06:29;;;;;;;16.42;10.90;;;;;;;7.04;100.00;98172.28;1646224;86;21059;-76
2021/11/27 07:08:56;;;;;;;18.98;10.78;;;;;;;7.06;100.00;98186.13;1654969;86;21145;-75
2021/11/27 07:11:30;;;;;;;17.30;11.83;;;;;;;7.09;100.00;98187.30;1653962;86;21154;-76
2021/11/27 07:13:57;;;;;;;18.27;10.00;;;;;;;7.14;100.00;98181.34;1659642;86;21534;-76
2021/11/27 07:16:25;;;;;;;18.75;11.40;;;;;;;7.16;100.00;98169.02;1657841;86;21624;-76
2021/11/27 07:18:52;;;;;;;19.50;12.18;;;;;;;7.19;100.00;98169.31;1658147;86;21113;-77
2021/11/27 07:21:19;;;;;;;15.53;10.80;;;;;;;7.23;100.00;98174.30;1657782;86;21125;-75
2021/11/27 07:23:45;;;;;;;20.85;12.50;;;;;;;7.26;100.00;98178.05;1658118;86;21145;-76
2021/11/27 07:26:12;;;;;;;23.35;13.13;;;;;;;7.29;100.00;98177.91;1658345;86;21165;-75
2021/11/27 07:28:50;;;;;;;22.48;14.05;;;;;;;7.31;100.00;98170.78;1652525;86;21078;-75
2021/11/27 07:31:19;;;;;;;21.23;14.47;;;;;;;7.34;100.00;98170.63;1650213;86;21087;-75
2021/11/27 07:33:47;;;;;;;23.83;15.25;;;;;;;7.39;100.00;98165.14;1651599;86;21509;-76
2021/11/27 07:36:14;;;;;;;28.10;16.02;;;;;;;7.43;100.00;98174.97;1656957;86;21690;-75
2021/11/27 07:38:41;;;;;;;25.77;15.53;;;;;;;7.46;100.00;98189.22;1650222;86;21116;-74
2021/11/27 07:41:11;;;;;;;26.37;16.73;;;;;;;7.49;100.00;98175.95;1645718;87;21067;-75
2021/11/27 07:43:39;;;;;;;22.98;14.58;;;;;;;7.53;100.00;98178.31;1626883;86;21115;-75
2021/11/27 07:46:07;;;;;;;25.85;15.88;;;;;;;7.58;100.00;98174.59;1611300;89;21140;-75
2021/11/27 07:48:54;;;;;;;25.15;13.98;;;;;;;7.60;100.00;98184.05;1617679;88;21294;-75
2021/11/27 07:51:34;;;;;;;21.57;13.95;;;;;;;7.64;100.00;98185.58;1594733;88;21555;-74
2021/11/27 07:54:03;;;;;;;22.50;14.47;;;;;;;7.67;100.00;98184.56;1616636;88;21103;-75
2021/11/27 07:56:31;;;;;;;23.75;14.53;;;;;;;7.69;100.00;98190.56;1621360;88;21108;-74
2021/11/27 07:58:58;;;;;;;24.95;15.18;;;;;;;7.73;100.00;98195.98;1601991;89;21580;-76
2021/11/27 08:01:24;;;;;;;24.40;15.38;;;;;;;7.75;100.00;98202.85;1625909;88;21113;-75
2021/11/27 08:03:51;;;;;;;22.80;14.45;;;;;;;7.81;100.00;98202.13;1587139;89;21589;-74
2021/11/27 08:06:18;;;;;;;32.83;18.40;;;;;;;7.85;100.00;98199.71;1612038;89;21710;-78
2021/11/27 08:08:45;;;;;;;25.57;16.00;;;;;;;7.88;100.00;98195.59;1659618;84;21138;-75
2021/11/27 08:11:11;;;;;;;29.90;16.00;;;;;;;7.94;100.00;98188.70;1655735;86;22007;-75
2021/11/27 08:13:40;;;;;;;23.98;16.05;;;;;;;8.00;100.00;98192.27;1637266;86;21168;-74
2021/11/27 08:16:06;;;;;;;26.70;17.23;;;;;;;8.08;100.00;98186.13;1637179;87;21068;-76
2021/11/27 08:18:35;;;;;;;32.42;18.48;;;;;;;8.16;100.00;98198.31;1638617;87;21144;-75
2021/11/27 08:21:03;;;;;;;28.85;17.80;;;;;;;8.25;100.00;98207.91;1646045;87;21074;-74
2021/11/27 08:23:30;;;;;;;30.55;18.95;;;;;;;8.27;100.00;98191.61;1644386;87;21125;-73
2021/11/27 08:25:58;;;;;;;28.95;17.75;;;;;;;8.38;100.00;98184.80;1643894;87;21098;-76
2021/11/27 08:28:24;;;;;;;29.18;16.35;;;;;;;8.55;100.00;98190.38;1644953;87;21203;-76
2021/11/27 08:30:51;;;;;;;28.57;17.35;;;;;;;8.67;100.00;98194.52;1644897;87;21167;-74
2021/11/27 08:33:18;;;;;;;28.27;16.57;;;;;;;8.75;100.00;98191.81;1644067;87;21150;-75
2021/11/27 08:35:45;;;;;;;25.40;16.40;;;;;;;8.80;100.00;98206.81;1672031;85;21203;-74
2021/11/27 08:38:12;;;;;;;33.50;18.48;;;;;;;8.84;100.00;98193.05;1673866;85;21003;-73
2021/11/27 08:40:38;;;;;;;30.90;17.73;;;;;;;8.86;100.00;98191.17;1665712;84;21548;-72
2021/11/27 08:43:05;;;;;;;28.83;17.75;;;;;;;8.84;100.00;98188.27;1633319;87;21106;-74
2021/11/27 08:45:32;;;;;;;29.70;17.50;;;;;;;8.87;100.00;98219.09;1660279;86;21105;-73
2021/11/27 08:47:59;;;;;;;29.55;17.48;;;;;;;8.90;100.00;98197.90;1606539;86;21176;-74
2021/11/27 08:50:26;;;;;;;35.90;20.10;;;;;;;8.99;100.00;98192.56;1613947;87;21075;-75
2021/11/27 08:52:54;;;;;;;33.63;18.50;;;;;;;9.11;100.00;98191.83;1609067;88;21070;-74
2021/11/27 08:55:20;;;;;;;31.52;18.62;;;;;;;9.41;100.00;98188.22;1613082;88;21151;-73
2021/11/27 08:57:51;;;;;;;28.83;18.52;;;;;;;9.65;100.00;98185.80;1614297;88;21142;-74
2021/11/27 09:00:18;;;;;;;30.48;18.92;;;;;;;9.83;100.00;98184.61;1634753;86;21585;-73
2021/11/27 09:02:46;;;;;;;31.30;19.02;;;;;;;9.91;100.00;98184.11;1637853;86;21118;-74
2021/11/27 09:05:13;;;;;;;29.52;17.07;;;;;;;10.07;100.00;98175.58;1607400;89;21073;-73
2021/11/27 09:07:41;;;;;;;31.02;18.48;;;;;;;10.27;100.00;98182.16;1598088;88;21083;-74
2021/11/27 09:10:09;;;;;;;26.93;17.95;;;;;;;10.42;100.00;98192.17;1615204;88;21640;-74
2021/11/27 09:12:37;;;;;;;29.07;18.15;;;;;;;10.50;100.00;98181.95;1632921;87;21610;-74
2021/11/27 09:15:05;;;;;;;29.37;17.73;;;;;;;10.59;100.00;98185.76;1658604;85;21174;-75
2021/11/27 09:17:32;;;;;;;29.92;17.27;;;;;;;10.71;100.00;98186.23;1660186;86;21082;-75
2021/11/27 09:19:59;;;;;;;28.80;16.62;;;;;;;10.87;100.00;98197.03;1661763;86;21082;-75
2021/11/27 09:22:25;;;;;;;26.23;16.35;;;;;;;11.05;100.00;98193.12;1659774;86;21102;-77
2021/11/27 09:24:52;;;;;;;29.02;17.90;;;;;;;11.25;100.00;98192.18;1657994;86;21130;-74
2021/11/27 09:27:20;;;;;;;24.92;16.67;;;;;;;11.46;100.00;98190.67;1635132;86;21046;-75
2021/11/27 09:29:46;;;;;;;27.00;16.50;;;;;;;11.76;100.00;98194.69;1636102;86;21053;-74
2021/11/27 09:32:14;;;;;;;26.95;16.73;;;;;;;11.97;100.00;98183.08;1597251;89;21098;-74
2021/11/27 09:34:43;;;;;;;31.62;17.30;;;;;;;11.90;100.00;98185.32;1608135;87;21115;-74
2021/11/27 09:37:14;;;;;;;28.75;17.60;;;;;;;11.87;100.00;98194.78;1613110;88;21570;-73
2021/11/27 09:39:41;;;;;;;28.17;18.10;;;;;;;11.65;100.00;98194.63;1631583;87;21715;-73
2021/11/27 09:42:11;;;;;;;27.60;18.75;;;;;;;11.47;100.00;98196.30;1642890;86;21593;-75
2021/11/27 09:44:37;;;;;;;27.03;17.93;;;;;;;11.38;100.00;98191.69;1642801;85;21708;-76
2021/11/27 09:47:04;;;;;;;33.75;20.48;;;;;;;11.29;100.00;98192.34;1609728;89;21099;-74
2021/11/27 09:49:31;;;;;;;32.85;20.37;;;;;;;11.07;100.00;98203.08;1621456;88;21564;-75
2021/11/27 09:51:57;;;;;;;28.67;19.30;;;;;;;10.97;100.00;98203.33;1621881;88;21069;-74
2021/11/27 09:54:24;;;;;;;35.17;20.80;;;;;;;10.97;100.00;98210.39;1621502;88;21133;-74
2021/11/27 09:56:55;;;;;;;34.08;19.45;;;;;;;10.99;100.00;98209.34;1618458;88;21175;-73
2021/11/27 09:59:22;;;;;;;32.70;20.37;;;;;;;11.03;100.00;98212.62;1619365;87;21138;-74
2021/11/27 10:01:54;;;;;;;30.52;18.45;;;;;;;11.19;100.00;98211.08;1643614;87;21509;-74
2021/11/27 10:04:23;;;;;;;27.45;18.32;;;;;;;11.47;100.00;98209.48;1640490;87;21103;-74
2021/11/27 10:06:51;;;;;;;33.75;19.15;;;;;;;11.73;100.00;98209.39;1622353;87;21161;-75
2021/11/27 10:09:22;;;;;;;31.70;18.48;;;;;;;11.93;98.80;98206.19;1627437;87;21744;-74
2021/11/27 10:11:51;;;;;;;29.90;18.30;;;;;;;12.11;97.66;98192.61;1633435;87;21115;-74
2021/11/27 10:14:19;;;;;;;27.55;16.48;;;;;;;12.45;96.63;98187.45;1569192;90;21053;-76
2021/11/27 10:17:04;;;;;;;34.05;19.55;;;;;;;12.93;91.06;98189.91;1602099;88;21858;-74
2021/11/27 10:19:49;;;;;;;29.37;18.02;;;;;;;13.44;92.03;98184.19;1649316;85;21113;-73
2021/11/27 10:22:23;;;;;;;28.12;18.52;;;;;;;14.08;83.59;98179.91;1607835;88;21680;-74
2021/11/27 10:24:50;;;;;;;26.37;17.40;;;;;;;14.47;82.83;98180.58;1661042;85;21066;-74
2021/11/27 10:27:23;;;;;;;30.60;18.55;;;;;;;14.58;79.64;98181.50;1625111;87;22026;-74
2021/11/27 10:30:08;;;;;;;28.85;18.73;;;;;;;14.33;79.40;98187.48;1663499;85;21055;-74
2021/11/27 10:32:41;;;;;;;30.08;18.73;;;;;;;14.00;80.19;98184.03;1670610;85;21514;-75
2021/11/27 10:35:14;;;;;;;31.85;18.48;;;;;;;13.79;83.14;98188.44;1605997;88;21135;-75
2021/11/27 10:37:47;;;;;;;;;;;;;;;14.12;82.40;98183.98;1653866;86;21106;-71
2021/11/27 10:40:23;;;;;;;24.67;16.52;;;;;;;14.41;79.22;98175.78;1655434;86;20218;-73
2021/11/27 10:42:57;;;;;;;26.15;15.95;;;;;;;14.17;77.77;98176.04;1617720;88;21083;-75
2021/11/27 10:45:31;;;;;;;25.82;16.60;;;;;;;13.94;77.90;98179.26;1601873;89;21661;-75
2021/11/27 10:48:14;;;;;;;26.17;17.12;;;;;;;13.72;78.65;98172.70;1606483;88;21611;-76
2021/11/27 10:50:50;;;;;;;23.87;16.35;;;;;;;14.01;78.43;98164.55;1606376;87;21089;-75
2021/11/27 10:53:27;;;;;;;30.50;19.45;;;;;;;14.68;78.24;98175.80;1606496;88;21642;-74
2021/11/27 10:56:05;;;;;;;26.40;17.05;;;;;;;15.26;75.98;98172.08;1606417;89;21576;-76
2021/11/27 10:58:32;;;;;;;26.52;15.35;;;;;;;15.78;72.80;98176.42;1606508;89;21045;-75
2021/11/27 11:00:59;;;;;;;25.52;15.72;;;;;;;15.80;69.41;98187.75;1606812;89;21085;-75
2021/11/27 11:03:31;;;;;;;24.87;14.03;;;;;;;15.53;68.84;98177.27;1606667;89;21100;-76
2021/11/27 11:06:04;;;;;;;20.55;14.60;;;;;;;14.72;70.81;98179.84;1606530;88;21547;-76
2021/11/27 11:08:36;;;;;;;27.67;15.93;;;;;;;13.95;72.53;98179.60;1572740;89;21126;-74
2021/11/27 11:11:26;;;;;;;23.83;15.48;;;;;;;13.48;75.42;98196.66;1606574;89;21112;-75
2021/11/27 11:13:59;;;;;;;24.32;15.88;;;;;;;12.94;77.45;98196.89;1606387;89;21093;-74
2021/11/27 11:16:31;;;;;;;27.00;15.43;;;;;;;12.53;79.70;98196.94;1607272;88;21114;-71
2021/11/27 11:19:23;;;;;;;28.25;16.05;;;;;;;12.23;82.53;98202.24;1600663;87;21877;-73
2021/11/27 11:22:13;;;;;;;30.90;18.25;;;;;;;12.12;84.64;98208.34;1611921;87;21072;-74
2021/11/27 11:24:45;;;;;;;35.25;19.67;;;;;;;12.04;86.91;98211.17;1580816;90;21065;-74
2021/11/27 11:27:12;;;;;;;39.30;20.80;;;;;;;12.03;85.09;98210.79;1581229;90;21133;-73
2021/11/27 11:29:50;;;;;;;32.70;19.17;;;;;;;12.27;85.21;98208.98;1587047;89;21178;-72
2021/11/27 11:32:27;;;;;;;32.10;18.82;;;;;;;12.47;83.47;98222.47;1605468;87;21132;-74
2021/11/27 11:35:00;;;;;;;32.30;20.00;;;;;;;12.49;84.60;98223.20;1606389;87;21793;-76
2021/11/27 11:37:26;;;;;;;34.80;18.50;;;;;;;12.44;84.87;98224.03;1608857;87;21095;-73
2021/11/27 11:39:56;;;;;;;35.08;20.17;;;;;;;12.39;84.90;98233.61;1606533;87;21054;-74
2021/11/27 11:42:25;;;;;;;35.17;20.27;;;;;;;12.36;84.81;98245.25;1631632;87;21061;-75
2021/11/27 11:44:54;;;;;;;33.13;20.62;;;;;;;12.33;85.52;98246.80;1619942;87;21230;-74
2021/11/27 11:47:24;;;;;;;35.13;19.48;;;;;;;12.36;83.35;98257.13;1624380;87;21123;-75
2021/11/27 11:50:00;;;;;;;31.60;20.27;;;;;;;12.39;84.96;98251.61;1657795;85;21066;-70